This is the latest recevied weather packets stored in our database for station/object OE3MNS-13. If no packets are shown the sender has not sent any weather packets the latest 10 day(s).
| Time | Temp. | Humidity | Pressure | Rain* | Wind** | Luminosity | Snow |
|---|---|---|---|---|---|---|---|
| 1778339720 | 20° C | 44% | 1016.9 hPa | 1.02 mm | - | 253 W/m² | - |
| 1778339419 | 20.56° C | 42% | 1016.9 hPa | 1.02 mm | - | 386 W/m² | - |
| 1778338820 | 20.56° C | 42% | 1017 hPa | 1.02 mm | - | 509 W/m² | - |
| 1778338518 | 20° C | 44% | 1016.9 hPa | 1.02 mm | - | 445 W/m² | - |
| 1778337920 | 20° C | 44% | 1017 hPa | 1.02 mm | - | 299 W/m² | - |
| 1778337619 | 20° C | 44% | 1017 hPa | 1.02 mm | - | 253 W/m² | - |
| 1778337021 | 20° C | 43% | 1017 hPa | 1.02 mm | - | 230 W/m² | - |
| 1778336422 | 20.56° C | 44% | 1016.9 hPa | 1.02 mm | - | 376 W/m² | - |
| 1778336118 | 20° C | 45% | 1017 hPa | 1.02 mm | - | 334 W/m² | - |
| 1778335816 | 19.44° C | 46% | 1017 hPa | 1.02 mm | - | 259 W/m² | - |
| 1778335221 | 19.44° C | 45% | 1017.1 hPa | 1.02 mm | - | 164 W/m² | - |
| 1778334620 | 19.44° C | 45% | 1017.2 hPa | 1.02 mm | - | 156 W/m² | - |
| 1778334021 | 20.56° C | 44% | 1017.3 hPa | 1.02 mm | - | 196 W/m² | - |
| 1778333720 | 20.56° C | 44% | 1017.3 hPa | 1.02 mm | - | 219 W/m² | - |
| 1778333419 | 20.56° C | 43% | 1017.3 hPa | 1.02 mm | - | 236 W/m² | - |
| 1778333119 | 20.56° C | 43% | 1017.3 hPa | 1.02 mm | - | 260 W/m² | - |
| 1778332818 | 21.11° C | 45% | 1017.4 hPa | 1.02 mm | - | 323 W/m² | - |
| 1778332221 | 21.11° C | 42% | 1017.4 hPa | 1.02 mm | - | 359 W/m² | - |
| 1778331921 | 21.11° C | 42% | 1017.5 hPa | 1.02 mm | - | 327 W/m² | - |
| 1778331321 | 22.22° C | 41% | 1017.5 hPa | 1.02 mm | - | 652 W/m² | - |
| 1778331019 | 21.67° C | 42% | 1017.5 hPa | 1.02 mm | - | 765 W/m² | - |
| 1778330718 | 22.22° C | 42% | 1017.6 hPa | 1.02 mm | - | 774 W/m² | - |
| 1778330417 | 22.22° C | 43% | 1017.5 hPa | 1.02 mm | - | 808 W/m² | - |
| 1778329821 | 21.11° C | 43% | 1017.6 hPa | 1.02 mm | - | 789 W/m² | - |
| 1778329219 | 21.67° C | 43% | 1017.7 hPa | 1.02 mm | - | 800 W/m² | - |
* Rain latest hour (hover to see other rain measurements)
** Current wind speed in m/s (hover to see current wind gust speed)